Time;durP1;ratioP1;P1;durP2;ratioP2;P2;SDS_P1;SDS_P2;PMS_P1;PMS_P2;Temp;Humidity;BMP_temperature;BMP_pressure;BME280_temperature;BME280_humidity;BME280_pressure;Samples;Min_cycle;Max_cycle;Signal;HPM_P1;HPM_P2
2023/07/16 00:02:06;;;;;;;3.70;3.03;;;24.20;99.90;;;;;;5097054;28;20467;-58
2023/07/16 00:04:34;;;;;;;3.60;2.20;;;24.00;99.90;;;;;;5093558;28;20481;-60
2023/07/16 00:07:02;;;;;;;3.47;2.67;;;24.00;99.90;;;;;;5084316;28;20491;-60
2023/07/16 00:09:35;;;;;;;3.60;2.97;;;23.90;99.90;;;;;;5084078;28;20446;-62
2023/07/16 00:12:02;;;;;;;4.30;2.70;;;;;;;;;;5084117;28;20530;-60
2023/07/16 00:14:29;;;;;;;3.43;3.07;;;;;;;;;;5083974;28;20442;-57
2023/07/16 00:16:56;;;;;;;2.87;2.57;;;;;;;;;;5084981;28;21030;-60
2023/07/16 00:19:23;;;;;;;7.27;2.77;;;;;;;;;;5084531;28;20526;-60
2023/07/16 00:21:50;;;;;;;4.33;2.90;;;23.80;99.90;;;;;;5084011;28;20557;-60
2023/07/16 00:24:18;;;;;;;5.27;2.83;;;23.50;99.90;;;;;;5083847;28;20601;-60
2023/07/16 00:26:45;;;;;;;5.60;3.03;;;;;;;;;;5083946;28;20782;-61
2023/07/16 00:29:12;;;;;;;4.10;3.63;;;23.70;99.90;;;;;;5084031;28;20517;-60
2023/07/16 00:31:39;;;;;;;5.67;3.00;;;;;;;;;;5084613;28;20485;-61
2023/07/16 00:34:06;;;;;;;4.60;3.17;;;;;;;;;;5084121;28;20538;-61
2023/07/16 00:36:33;;;;;;;4.23;3.00;;;23.60;99.90;;;;;;5083851;28;20453;-60
2023/07/16 00:41:42;;;;;;;4.87;2.83;;;23.60;99.90;;;;;;5083132;28;20447;-60
2023/07/16 00:44:10;;;;;;;3.80;2.93;;;;;;;;;;5084316;28;20470;-61
2023/07/16 00:46:37;;;;;;;5.97;3.47;;;23.50;99.90;;;;;;5083637;28;20503;-61
2023/07/16 00:49:04;;;;;;;4.13;3.53;;;23.60;99.90;;;;;;5086033;28;20493;-61
2023/07/16 00:51:31;;;;;;;3.40;3.10;;;23.70;99.90;;;;;;5084718;28;20489;-61
2023/07/16 00:53:58;;;;;;;5.23;3.33;;;;;;;;;;5083364;28;20534;-58
2023/07/16 00:56:26;;;;;;;3.60;2.87;;;;;;;;;;5083679;28;20451;-59
2023/07/16 00:58:54;;;;;;;5.90;4.30;;;23.80;99.90;;;;;;5083145;28;20897;-60
2023/07/16 01:01:24;;;;;;;10.87;4.63;;;23.80;99.90;;;;;;5083917;28;20506;-61
2023/07/16 01:03:51;;;;;;;5.73;3.97;;;;;;;;;;5083463;28;20497;-60
2023/07/16 01:06:23;;;;;;;6.00;4.23;;;24.00;99.90;;;;;;5083191;28;20872;-62
2023/07/16 01:08:55;;;;;;;4.20;3.40;;;24.20;99.90;;;;;;5082706;28;20525;-60
2023/07/16 01:11:23;;;;;;;5.23;3.47;;;23.30;99.90;;;;;;5082612;28;20541;-57
2023/07/16 01:13:50;;;;;;;2.97;2.77;;;;;;;;;;5082743;28;20562;-60
2023/07/16 01:16:22;;;;;;;4.63;3.50;;;23.60;99.90;;;;;;5082694;28;20470;-59
2023/07/16 01:18:49;;;;;;;8.70;5.33;;;23.70;99.90;;;;;;5082582;28;20501;-61
2023/07/16 01:21:19;;;;;;;6.70;3.43;;;23.40;99.90;;;;;;5082615;28;20521;-62
2023/07/16 01:24:12;;;;;;;10.17;4.03;;;23.10;99.90;;;;;;5083694;28;20494;-61
2023/07/16 01:27:03;;;;;;;6.03;4.13;;;23.30;99.90;;;;;;5083723;28;20864;-62
2023/07/16 01:29:34;;;;;;;5.33;3.90;;;23.10;99.90;;;;;;5083646;28;20477;-60
2023/07/16 01:32:03;;;;;;;4.90;4.40;;;23.00;99.90;;;;;;5084015;28;20763;-59
2023/07/16 01:34:34;;;;;;;4.77;4.30;;;22.90;99.90;;;;;;5085091;28;20505;-63
2023/07/16 01:37:01;;;;;;;6.30;5.27;;;;;;;;;;5085517;28;20442;-58
2023/07/16 01:39:28;;;;;;;5.37;4.47;;;22.70;99.90;;;;;;5089409;28;20466;-60
2023/07/16 01:41:56;;;;;;;8.50;5.67;;;;;;;;;;5089219;28;20746;-60
2023/07/16 01:44:22;;;;;;;10.23;5.93;;;22.60;99.90;;;;;;5089815;28;20501;-61
2023/07/16 01:47:09;;;;;;;6.93;5.20;;;22.40;99.90;;;;;;5089274;28;20497;-60
2023/07/16 01:49:41;;;;;;;5.67;4.20;;;;;;;;;;5089854;28;20469;-58
2023/07/16 01:52:10;;;;;;;6.33;5.70;;;22.50;99.90;;;;;;5089912;28;20809;-60
2023/07/16 01:54:37;;;;;;;6.70;3.40;;;22.60;99.90;;;;;;5089577;28;20541;-59
2023/07/16 01:57:04;;;;;;;5.10;4.00;;;23.00;99.90;;;;;;5089094;28;20445;-60
2023/07/16 01:59:31;;;;;;;13.83;4.27;;;;;;;;;;5089565;28;20442;-59
2023/07/16 02:02:00;;;;;;;4.53;4.13;;;;;;;;;;5089335;28;20451;-61
2023/07/16 02:04:27;;;;;;;3.73;3.10;;;22.60;99.90;;;;;;5089145;28;20470;-61
2023/07/16 02:06:54;;;;;;;6.40;2.70;;;;;;;;;;5090426;28;20516;-60
2023/07/16 02:09:21;;;;;;;5.10;3.93;;;22.80;99.90;;;;;;5089346;28;20832;-60
2023/07/16 02:11:48;;;;;;;4.70;3.70;;;;;;;;;;5089230;28;20446;-60
2023/07/16 02:14:15;;;;;;;3.30;3.00;;;23.20;99.90;;;;;;5089361;28;20438;-59
2023/07/16 02:16:43;;;;;;;3.73;3.10;;;;;;;;;;5090707;28;20469;-61
2023/07/16 02:19:11;;;;;;;5.60;3.20;;;22.90;99.90;;;;;;5089365;28;20506;-61
2023/07/16 02:21:38;;;;;;;3.30;2.73;;;;;;;;;;5089333;28;20458;-60
2023/07/16 02:24:05;;;;;;;4.67;3.00;;;;;;;;;;5089626;28;20470;-61
2023/07/16 02:26:32;;;;;;;3.50;2.67;;;;;;;;;;5089492;28;20501;-60
2023/07/16 02:28:59;;;;;;;5.70;3.33;;;22.80;99.90;;;;;;5089285;28;20521;-60
2023/07/16 02:31:26;;;;;;;3.60;2.70;;;22.50;99.90;;;;;;5088856;28;20469;-59
2023/07/16 02:33:53;;;;;;;2.93;2.37;;;22.30;99.90;;;;;;5088632;28;20473;-59
2023/07/16 02:36:22;;;;;;;3.63;3.33;;;;;;;;;;5088850;28;20480;-59
2023/07/16 02:38:48;;;;;;;3.47;3.17;;;22.20;99.90;;;;;;5089315;28;20477;-58
2023/07/16 02:41:15;;;;;;;3.53;2.40;;;22.10;99.90;;;;;;5089015;28;20653;-60
2023/07/16 02:43:42;;;;;;;5.33;3.27;;;;;;;;;;5089657;28;20524;-59
2023/07/16 02:46:09;;;;;;;2.73;2.37;;;21.80;99.90;;;;;;5089081;28;20554;-60
2023/07/16 02:48:36;;;;;;;3.13;2.83;;;22.00;99.90;;;;;;5088403;28;20469;-60
2023/07/16 02:51:03;;;;;;;3.13;2.57;;;21.90;99.90;;;;;;5087629;28;20506;-59
2023/07/16 02:53:31;;;;;;;4.00;2.83;;;21.90;99.90;;;;;;5089607;28;20455;-61
2023/07/16 02:55:58;;;;;;;3.20;2.90;;;;;;;;;;5089349;28;20818;-60
2023/07/16 02:58:26;;;;;;;6.50;3.63;;;;;;;;;;5088858;28;20485;-60
2023/07/16 03:00:52;;;;;;;6.80;2.83;;;22.00;99.90;;;;;;5088269;28;20469;-60
2023/07/16 03:03:20;;;;;;;4.33;3.10;;;;;;;;;;5089024;28;20477;-59
2023/07/16 03:05:47;;;;;;;3.20;2.90;;;;;;;;;;5088678;28;20514;-59
2023/07/16 03:08:14;;;;;;;4.13;3.20;;;21.90;99.90;;;;;;5088819;28;20488;-59
2023/07/16 03:10:42;;;;;;;5.13;3.23;;;22.10;99.90;;;;;;5097355;28;20453;-60
2023/07/16 03:13:09;;;;;;;3.87;3.17;;;;;;;;;;5090171;28;20472;-60
2023/07/16 03:15:36;;;;;;;3.37;3.07;;;;;;;;;;5089331;28;20481;-60
2023/07/16 03:18:03;;;;;;;4.17;3.00;;;;;;;;;;5088144;28;20526;-61
2023/07/16 03:20:30;;;;;;;6.80;3.20;;;;;;;;;;5087695;28;20550;-60
2023/07/16 03:22:57;;;;;;;4.00;2.77;;;;;;;;;;5088515;28;20538;-60
2023/07/16 03:25:24;;;;;;;4.83;2.90;;;21.90;99.90;;;;;;5087945;28;20530;-60
2023/07/16 03:27:52;;;;;;;3.70;2.57;;;22.30;99.90;;;;;;5088050;28;20490;-61
2023/07/16 03:30:20;;;;;;;5.73;2.27;;;;;;;;;;5088380;28;20438;-60
2023/07/16 03:32:46;;;;;;;3.80;2.60;;;21.70;99.90;;;;;;5088777;28;20502;-60
2023/07/16 03:35:14;;;;;;;2.90;2.60;;;;;;;;;;5087820;28;20422;-58
2023/07/16 03:37:40;;;;;;;2.87;2.40;;;22.00;99.90;;;;;;5087376;28;20474;-61
2023/07/16 03:40:17;;;;;;;2.60;2.20;;;21.80;99.90;;;;;;5088676;28;20457;-61
2023/07/16 03:42:45;;;;;;;3.10;2.47;;;21.60;99.90;;;;;;5087937;28;20431;-60
2023/07/16 03:45:14;;;;;;;2.50;2.30;;;21.80;99.90;;;;;;5087993;28;20937;-60
2023/07/16 03:47:41;;;;;;;2.47;2.03;;;;;;;;;;5087553;28;20442;-60
2023/07/16 03:50:09;;;;;;;3.90;2.43;;;;;;;;;;5089458;28;20912;-60
2023/07/16 03:52:36;;;;;;;3.23;2.37;;;21.60;99.90;;;;;;5087229;28;20442;-60
2023/07/16 03:55:03;;;;;;;5.00;2.83;;;21.80;99.90;;;;;;5087045;28;20595;-62
2023/07/16 03:57:30;;;;;;;5.63;2.80;;;21.90;99.90;;;;;;5087323;28;20530;-59
2023/07/16 03:59:58;;;;;;;3.97;2.87;;;21.80;99.90;;;;;;5087265;28;20510;-59
2023/07/16 04:02:26;;;;;;;4.80;2.57;;;;;;;;;;5086308;28;20442;-61
2023/07/16 04:04:53;;;;;;;3.50;2.90;;;;;;;;;;5088007;28;20486;-60
2023/07/16 04:07:20;;;;;;;3.70;2.80;;;21.40;99.90;;;;;;5087053;28;20506;-60
2023/07/16 04:09:47;;;;;;;2.40;2.20;;;;;;;;;;5087537;28;20493;-60
2023/07/16 04:12:14;;;;;;;3.10;2.77;;;21.70;99.90;;;;;;5087013;28;20450;-59
2023/07/16 04:14:41;;;;;;;4.03;2.97;;;;;;;;;;5085510;28;21000;-60
2023/07/16 04:17:08;;;;;;;2.17;1.97;;;21.70;99.90;;;;;;5079503;28;20691;-60
2023/07/16 04:19:37;;;;;;;3.53;2.87;;;21.60;99.90;;;;;;5080098;28;20486;-62
2023/07/16 04:22:04;;;;;;;4.83;2.90;;;;;;;;;;5079892;28;20935;-61
2023/07/16 04:24:31;;;;;;;3.57;3.00;;;21.90;99.90;;;;;;5080052;28;20566;-61
2023/07/16 04:26:59;;;;;;;4.20;2.80;;;21.70;99.90;;;;;;5079821;28;20568;-59
2023/07/16 04:29:26;;;;;;;2.93;2.63;;;22.40;99.90;;;;;;5079624;28;20478;-61
2023/07/16 04:31:53;;;;;;;3.83;2.50;;;21.70;99.90;;;;;;5079807;28;20457;-60
2023/07/16 04:34:20;;;;;;;2.83;2.63;;;;;;;;;;5079037;28;20530;-59
2023/07/16 04:36:48;;;;;;;4.83;2.97;;;21.80;99.90;;;;;;5079500;28;20485;-52
2023/07/16 04:39:15;;;;;;;6.10;3.07;;;21.70;99.90;;;;;;5079279;28;21010;-61
2023/07/16 04:41:42;;;;;;;3.10;2.80;;;;;;;;;;5079799;28;20452;-60
2023/07/16 04:44:09;;;;;;;4.37;2.93;;;21.60;99.90;;;;;;5081046;28;20446;-60
2023/07/16 04:46:36;;;;;;;4.30;3.30;;;21.80;99.90;;;;;;5081524;28;20470;-60
2023/07/16 04:49:03;;;;;;;5.23;3.40;;;21.40;99.90;;;;;;5081861;28;20525;-59
2023/07/16 04:51:30;;;;;;;5.33;3.57;;;21.40;99.90;;;;;;5081830;28;20545;-60
2023/07/16 04:53:58;;;;;;;4.10;2.80;;;21.70;99.90;;;;;;5081936;28;20474;-60
2023/07/16 04:56:25;;;;;;;4.33;3.13;;;21.70;99.90;;;;;;5081874;28;20526;-62
2023/07/16 04:58:52;;;;;;;4.20;2.67;;;21.80;99.90;;;;;;5086230;28;20502;-61
2023/07/16 05:01:20;;;;;;;3.77;3.30;;;;;;;;;;5080811;28;20947;-60
2023/07/16 05:03:47;;;;;;;5.60;3.10;;;21.60;99.90;;;;;;5083755;28;20472;-62
2023/07/16 05:06:14;;;;;;;4.00;3.20;;;21.60;99.90;;;;;;5083138;28;20541;-60
2023/07/16 05:08:41;;;;;;;3.80;3.40;;;21.80;99.90;;;;;;5081867;28;20448;-60
2023/07/16 05:11:09;;;;;;;3.70;3.20;;;21.70;99.90;;;;;;5083201;28;20903;-61
2023/07/16 05:13:36;;;;;;;3.17;2.87;;;;;;;;;;5084594;28;20510;-60
2023/07/16 05:16:03;;;;;;;4.63;2.90;;;21.40;99.90;;;;;;5085186;28;20461;-62
2023/07/16 05:18:29;;;;;;;3.27;2.97;;;21.80;99.90;;;;;;5084870;28;20436;-59
2023/07/16 05:20:56;;;;;;;4.10;3.60;;;21.90;99.90;;;;;;5085172;28;20476;-61
2023/07/16 05:23:23;;;;;;;5.03;3.10;;;22.00;99.90;;;;;;5085559;28;20970;-58
2023/07/16 05:25:51;;;;;;;3.50;2.73;;;21.90;99.90;;;;;;5085538;28;20532;-60
2023/07/16 05:28:20;;;;;;;3.90;2.97;;;22.60;99.90;;;;;;5083719;28;20846;-61
2023/07/16 05:30:47;;;;;;;5.40;3.60;;;;;;;;;;5082718;28;20529;-61
2023/07/16 05:33:14;;;;;;;3.67;2.90;;;;;;;;;;5083621;28;20518;-60
2023/07/16 05:35:41;;;;;;;6.83;3.80;;;;;;;;;;5083265;28;20906;-62
2023/07/16 05:38:08;;;;;;;3.30;2.93;;;;;;;;;;5083302;28;20538;-60
2023/07/16 05:40:35;;;;;;;5.13;3.90;;;22.30;99.90;;;;;;5082738;28;20481;-61
2023/07/16 05:43:02;;;;;;;3.80;2.87;;;22.40;99.90;;;;;;5082707;28;20469;-59
2023/07/16 05:45:31;;;;;;;3.53;3.07;;;22.50;99.90;;;;;;5082913;28;20445;-60
2023/07/16 05:47:58;;;;;;;3.43;2.63;;;;;;;;;;5083243;28;20518;-61
2023/07/16 05:50:25;;;;;;;4.67;3.50;;;;;;;;;;5082456;28;20530;-61
2023/07/16 05:52:55;;;;;;;2.70;2.50;;;22.40;99.90;;;;;;5082231;28;20483;-60
2023/07/16 05:55:22;;;;;;;3.00;2.80;;;;;;;;;;5083323;28;20473;-59
2023/07/16 05:57:49;;;;;;;3.60;2.83;;;22.60;99.90;;;;;;5082518;28;20493;-61
2023/07/16 06:00:16;;;;;;;5.30;3.23;;;;;;;;;;5083180;28;20510;-62
2023/07/16 06:02:44;;;;;;;3.40;2.60;;;22.50;99.90;;;;;;5082772;28;20531;-63
2023/07/16 06:05:12;;;;;;;5.13;3.93;;;;;;;;;;5082823;28;20485;-61
2023/07/16 06:07:38;;;;;;;3.73;3.10;;;22.30;99.90;;;;;;5082076;28;20569;-61
2023/07/16 06:10:06;;;;;;;3.93;3.57;;;;;;;;;;5082719;28;20928;-60
2023/07/16 06:12:33;;;;;;;3.47;2.80;;;22.10;99.90;;;;;;5082401;28;21006;-60
2023/07/16 06:15:00;;;;;;;4.30;3.87;;;;;;;;;;5083162;28;20973;-60
2023/07/16 06:17:27;;;;;;;3.83;3.10;;;22.40;99.90;;;;;;5082560;28;20900;-60
2023/07/16 06:19:55;;;;;;;4.20;3.37;;;22.50;99.90;;;;;;5082299;28;20452;-61
2023/07/16 06:22:22;;;;;;;4.67;3.33;;;22.20;99.90;;;;;;5082365;28;20453;-60
2023/07/16 06:24:49;;;;;;;4.10;3.70;;;22.70;99.90;;;;;;5082014;28;20835;-61
2023/07/16 06:27:16;;;;;;;5.03;3.50;;;22.50;99.90;;;;;;5082314;28;21048;-60
2023/07/16 06:29:43;;;;;;;3.73;2.87;;;22.60;99.90;;;;;;5081799;28;21012;-58
2023/07/16 06:32:11;;;;;;;3.73;3.23;;;22.80;99.90;;;;;;5081333;28;20541;-62
2023/07/16 06:34:38;;;;;;;4.40;3.87;;;22.80;99.90;;;;;;5082121;28;20485;-60
2023/07/16 06:37:09;;;;;;;5.10;3.20;;;23.00;99.90;;;;;;5082408;28;20446;-61
2023/07/16 06:39:36;;;;;;;3.70;3.40;;;23.00;99.90;;;;;;5082128;28;20960;-61
2023/07/16 06:42:05;;;;;;;3.67;3.20;;;23.00;99.90;;;;;;5082852;28;21033;-61
2023/07/16 06:44:32;;;;;;;5.00;3.63;;;;;;;;;;5081916;28;20523;-60
2023/07/16 06:46:59;;;;;;;4.20;3.27;;;;;;;;;;5080970;28;20569;-61
2023/07/16 06:49:27;;;;;;;4.10;3.07;;;23.00;99.90;;;;;;5082019;28;20488;-61
2023/07/16 06:51:54;;;;;;;2.80;2.53;;;23.10;99.90;;;;;;5081913;28;20521;-60
2023/07/16 06:54:22;;;;;;;6.13;3.00;;;23.40;99.90;;;;;;5082061;28;20793;-60
2023/07/16 06:56:49;;;;;;;8.10;2.93;;;23.90;99.90;;;;;;5082379;28;20831;-58
2023/07/16 06:59:16;;;;;;;3.50;2.57;;;23.40;99.90;;;;;;5081610;28;20811;-61
2023/07/16 07:01:42;;;;;;;3.10;2.87;;;23.50;99.90;;;;;;5089512;28;20490;-61
2023/07/16 07:04:11;;;;;;;3.87;2.57;;;24.30;99.90;;;;;;5089493;28;20431;-60
2023/07/16 07:06:38;;;;;;;3.60;2.80;;;;;;;;;;5088785;28;20500;-60
2023/07/16 07:09:05;;;;;;;6.07;2.87;;;24.10;99.90;;;;;;5096738;28;20461;-59
2023/07/16 07:11:33;;;;;;;3.27;2.97;;;24.30;99.90;;;;;;5090160;28;20469;-60
2023/07/16 07:14:00;;;;;;;2.53;2.33;;;24.10;99.90;;;;;;5087099;28;20472;-57
2023/07/16 07:16:29;;;;;;;3.37;2.70;;;24.70;99.90;;;;;;5087030;28;20473;-59
2023/07/16 07:18:56;;;;;;;2.77;2.47;;;;;;;;;;5085876;28;20475;-61
2023/07/16 07:21:23;;;;;;;2.90;2.03;;;25.00;99.90;;;;;;5086907;28;20497;-60
2023/07/16 07:23:50;;;;;;;2.90;2.60;;;;;;;;;;5085832;28;20465;-59
2023/07/16 07:26:17;;;;;;;3.70;2.53;;;24.70;99.90;;;;;;5085790;28;20530;-58
2023/07/16 07:28:45;;;;;;;3.40;3.10;;;24.50;99.90;;;;;;5086529;28;20541;-58
2023/07/16 07:31:12;;;;;;;3.03;2.73;;;24.50;99.90;;;;;;5086186;28;20505;-60
2023/07/16 07:33:39;;;;;;;5.70;2.87;;;;;;;;;;5086622;28;20446;-60
2023/07/16 07:36:07;;;;;;;2.93;2.60;;;;;;;;;;5085882;28;20494;-59
2023/07/16 07:38:34;;;;;;;3.10;2.80;;;25.30;99.90;;;;;;5087435;28;20493;-59
2023/07/16 07:41:02;;;;;;;3.20;2.90;;;;;;;;;;5085560;28;20530;-61
2023/07/16 07:43:29;;;;;;;3.80;3.50;;;;;;;;;;5084207;28;20454;-61
2023/07/16 07:45:57;;;;;;;3.17;2.87;;;28.40;99.90;;;;;;5082931;28;20529;-60
2023/07/16 07:48:24;;;;;;;3.43;3.13;;;;;;;;;;5082703;28;20486;-61
2023/07/16 07:50:54;;;;;;;3.63;2.97;;;;;;;;;;5091891;28;20465;-57
2023/07/16 07:53:22;;;;;;;3.53;3.23;;;;;;;;;;5082633;28;20427;-60
2023/07/16 07:55:48;;;;;;;3.50;3.13;;;28.90;99.90;;;;;;5081634;28;20442;-61
2023/07/16 07:58:15;;;;;;;2.80;2.60;;;28.40;99.90;;;;;;5081105;28;20538;-60
2023/07/16 08:00:42;;;;;;;3.90;3.07;;;27.20;99.90;;;;;;5081225;28;20442;-61
2023/07/16 08:03:10;;;;;;;3.93;3.00;;;25.90;99.90;;;;;;5082823;28;20462;-58
2023/07/16 08:05:37;;;;;;;3.80;3.50;;;26.30;99.90;;;;;;5084391;28;20546;-61
2023/07/16 08:08:04;;;;;;;4.53;2.40;;;;;;;;;;5083273;28;20524;-61
2023/07/16 08:10:31;;;;;;;5.57;3.00;;;25.40;99.90;;;;;;5083572;28;20533;-61
2023/07/16 08:12:58;;;;;;;3.13;2.83;;;26.00;99.90;;;;;;5084480;28;20466;-61
2023/07/16 08:15:25;;;;;;;3.10;2.80;;;27.30;99.90;;;;;;5082805;28;20529;-62
2023/07/16 08:17:52;;;;;;;3.93;2.80;;;29.00;99.90;;;;;;5082104;28;20526;-61
2023/07/16 08:20:21;;;;;;;4.20;2.73;;;30.00;99.90;;;;;;5081691;28;20438;-61
2023/07/16 08:22:50;;;;;;;2.53;2.33;;;;;;;;;;5080879;28;20498;-61
2023/07/16 08:25:17;;;;;;;2.00;1.83;;;;;;;;;;5081043;28;20457;-61
2023/07/16 08:27:44;;;;;;;2.40;2.20;;;;;;;;;;5080447;28;20577;-60
2023/07/16 08:30:11;;;;;;;4.23;2.30;;;28.80;99.90;;;;;;5080759;28;20462;-60
2023/07/16 08:32:38;;;;;;;2.93;2.50;;;28.10;99.90;;;;;;5080788;28;20513;-61
2023/07/16 08:35:06;;;;;;;4.53;2.33;;;;;;;;;;5081364;28;20493;-62
2023/07/16 08:37:34;;;;;;;3.23;2.37;;;29.50;99.90;;;;;;5082054;28;20477;-59
2023/07/16 08:40:01;;;;;;;4.23;2.10;;;30.60;99.90;;;;;;5081580;28;20419;-60
2023/07/16 08:42:28;;;;;;;2.73;2.43;;;31.70;99.90;;;;;;5081320;28;20442;-62
2023/07/16 08:44:55;;;;;;;2.10;1.90;;;32.30;99.90;;;;;;5081202;28;20555;-60
2023/07/16 08:47:24;;;;;;;3.10;2.20;;;32.30;99.90;;;;;;5080226;28;20524;-60
2023/07/16 08:49:56;;;;;;;2.50;2.00;;;32.50;94.60;;;;;;5081093;28;20470;-61
2023/07/16 08:52:23;;;;;;;2.53;2.07;;;33.70;99.90;;;;;;5080844;28;20426;-60
2023/07/16 08:54:52;;;;;;;2.10;1.80;;;34.00;99.90;;;;;;5081114;28;20439;-60
2023/07/16 08:57:21;;;;;;;3.53;1.80;;;34.40;81.00;;;;;;5080492;28;20511;-60
2023/07/16 08:59:49;;;;;;;2.37;2.00;;;34.40;81.50;;;;;;5079863;28;20476;-60
2023/07/16 09:02:18;;;;;;;2.80;2.20;;;33.90;79.40;;;;;;5079845;28;20458;-60
2023/07/16 09:04:46;;;;;;;4.00;2.90;;;;;;;;;;5080166;28;20821;-60
2023/07/16 09:07:13;;;;;;;5.20;2.13;;;33.20;79.40;;;;;;5080028;28;20485;-60
2023/07/16 09:09:40;;;;;;;3.67;2.40;;;;;;;;;;5079806;28;20534;-62
2023/07/16 09:12:12;;;;;;;3.30;2.63;;;33.60;72.90;;;;;;5079140;28;20522;-60
2023/07/16 09:14:41;;;;;;;6.50;2.20;;;33.00;96.60;;;;;;5079279;28;20502;-60
2023/07/16 09:17:08;;;;;;;5.80;2.53;;;33.00;98.00;;;;;;5085748;28;20447;-61
2023/07/16 09:19:35;;;;;;;4.40;2.47;;;33.10;96.80;;;;;;5080202;28;20513;-60
2023/07/16 09:22:02;;;;;;;3.63;2.37;;;33.00;76.40;;;;;;5080837;28;20496;-60
2023/07/16 09:24:32;;;;;;;3.50;2.63;;;33.50;74.70;;;;;;5079917;28;20462;-61
2023/07/16 09:27:01;;;;;;;2.80;2.57;;;33.50;77.00;;;;;;5079890;28;20466;-59
2023/07/16 09:29:29;;;;;;;3.10;2.33;;;33.40;75.00;;;;;;5079399;28;20581;-61
2023/07/16 09:31:57;;;;;;;7.43;3.50;;;33.80;95.10;;;;;;5080765;28;20441;-60
2023/07/16 09:34:24;;;;;;;3.30;2.50;;;33.90;74.10;;;;;;5080782;28;20454;-59
2023/07/16 09:36:51;;;;;;;2.90;2.30;;;34.30;73.50;;;;;;5080424;28;20513;-61
2023/07/16 09:39:19;;;;;;;2.13;2.00;;;33.90;71.70;;;;;;5078966;28;20478;-60
2023/07/16 09:41:48;;;;;;;3.57;3.00;;;33.10;95.10;;;;;;5079808;28;20446;-59
2023/07/16 09:44:16;;;;;;;2.40;2.20;;;;;;;;;;5079698;28;20442;-58
2023/07/16 09:46:44;;;;;;;2.83;2.43;;;33.10;72.40;;;;;;5080270;28;20446;-58
2023/07/16 09:49:12;;;;;;;3.10;2.50;;;;;;;;;;5080418;28;20505;-59
2023/07/16 09:51:40;;;;;;;10.07;2.70;;;33.80;67.70;;;;;;5078895;28;20446;-59
2023/07/16 09:54:07;;;;;;;3.30;2.30;;;33.50;93.70;;;;;;5080538;28;20461;-60
2023/07/16 09:56:37;;;;;;;4.43;2.07;;;34.10;71.50;;;;;;5080110;28;20503;-60
2023/07/16 09:59:09;;;;;;;2.40;2.17;;;34.30;67.20;;;;;;5080214;28;20434;-60
2023/07/16 10:01:40;;;;;;;2.70;1.83;;;34.10;66.80;;;;;;5083294;28;20462;-60
2023/07/16 10:04:16;;;;;;;3.07;2.10;;;34.00;68.00;;;;;;5083231;28;20811;-61
2023/07/16 10:06:56;;;;;;;4.93;2.27;;;33.40;66.50;;;;;;5082306;28;20506;-60
2023/07/16 10:09:36;;;;;;;4.40;2.33;;;32.10;69.30;;;;;;5083037;28;20473;-59
2023/07/16 10:12:14;;;;;;;2.10;1.90;;;31.60;96.30;;;;;;5082413;28;20577;-59
2023/07/16 10:14:42;;;;;;;4.00;3.40;;;31.60;74.40;;;;;;5083963;28;20441;-62
2023/07/16 10:17:14;;;;;;;2.20;2.00;;;31.90;73.80;;;;;;5083061;28;20477;-60
2023/07/16 10:19:56;;;;;;;5.40;2.50;;;32.30;73.30;;;;;;5083831;28;20423;-60
2023/07/16 10:22:33;;;;;;;2.50;2.30;;;32.50;73.70;;;;;;5083545;28;20469;-60
2023/07/16 10:25:00;;;;;;;3.10;2.23;;;32.80;89.90;;;;;;5083317;28;20426;-59
2023/07/16 10:27:29;;;;;;;2.70;2.27;;;32.80;70.40;;;;;;5083053;28;20513;-60
2023/07/16 10:29:56;;;;;;;3.80;2.57;;;32.90;69.80;;;;;;5083362;28;20449;-60
2023/07/16 10:32:26;;;;;;;2.83;2.63;;;33.10;67.80;;;;;;5083133;28;20512;-59
2023/07/16 10:34:54;;;;;;;5.23;2.60;;;33.20;68.40;;;;;;5083315;28;20499;-60
2023/07/16 10:37:21;;;;;;;3.27;2.20;;;33.40;68.60;;;;;;5083098;28;21003;-60
2023/07/16 10:39:49;;;;;;;4.10;2.60;;;33.70;69.70;;;;;;5082353;28;20442;-59
2023/07/16 10:42:17;;;;;;;3.87;2.40;;;33.60;65.40;;;;;;5083512;28;20505;-61
2023/07/16 10:44:45;;;;;;;2.40;2.17;;;33.60;65.30;;;;;;5082539;28;20529;-59
2023/07/16 10:47:21;;;;;;;2.50;2.27;;;33.70;67.40;;;;;;5082090;28;20494;-60
2023/07/16 10:49:48;;;;;;;5.17;2.53;;;33.30;67.90;;;;;;5082177;28;20472;-60
2023/07/16 10:52:16;;;;;;;2.77;2.53;;;32.60;68.70;;;;;;5081916;28;20470;-60
2023/07/16 10:54:43;;;;;;;2.70;2.30;;;;;;;;;;5081444;28;20463;-60
2023/07/16 10:57:11;;;;;;;5.77;3.13;;;30.00;73.90;;;;;;5081303;28;20476;-60
2023/07/16 10:59:40;;;;;;;2.57;2.37;;;28.20;76.60;;;;;;5082538;28;20500;-59
2023/07/16 11:02:11;;;;;;;2.60;2.40;;;29.20;78.10;;;;;;5082000;28;20435;-59
2023/07/16 11:04:38;;;;;;;2.93;2.43;;;28.40;99.50;;;;;;5082320;28;20426;-58
2023/07/16 11:07:08;;;;;;;4.80;4.03;;;28.30;82.10;;;;;;5082480;28;20520;-61
2023/07/16 11:09:42;;;;;;;3.53;3.00;;;28.10;83.20;;;;;;5082483;28;20478;-59
2023/07/16 11:12:13;;;;;;;6.80;2.60;;;27.90;99.90;;;;;;5082482;28;20449;-59
2023/07/16 11:14:40;;;;;;;3.60;2.30;;;28.20;99.90;;;;;;5082754;28;20430;-59
2023/07/16 11:17:08;;;;;;;6.50;2.87;;;28.00;86.70;;;;;;5082550;28;20509;-60
2023/07/16 11:19:36;;;;;;;4.93;2.90;;;28.40;99.90;;;;;;5083003;28;20438;-60
2023/07/16 11:22:05;;;;;;;4.60;2.73;;;28.60;99.90;;;;;;5082608;28;20938;-60
2023/07/16 11:24:51;;;;;;;3.20;2.90;;;28.70;85.90;;;;;;5082832;28;20478;-59
2023/07/16 11:27:19;;;;;;;2.30;2.10;;;28.90;85.50;;;;;;5082236;28;20496;-60
2023/07/16 11:29:47;;;;;;;4.03;2.57;;;28.70;85.10;;;;;;5082142;28;20560;-60
2023/07/16 11:32:26;;;;;;;4.63;3.47;;;28.60;85.70;;;;;;5081707;28;20931;-60
2023/07/16 11:34:56;;;;;;;5.00;2.67;;;28.00;98.40;;;;;;5081862;28;20465;-60
2023/07/16 11:37:25;;;;;;;7.63;4.80;;;28.20;88.00;;;;;;5081757;28;20461;-59
2023/07/16 11:39:56;;;;;;;11.70;8.00;;;28.10;89.20;;;;;;5082036;28;20462;-60
2023/07/16 11:42:29;;;;;;;6.03;3.90;;;28.10;89.50;;;;;;5081850;28;20461;-60
2023/07/16 11:45:00;;;;;;;5.27;4.57;;;28.20;90.00;;;;;;5081320;28;20569;-60
2023/07/16 11:47:30;;;;;;;6.40;2.80;;;28.40;87.10;;;;;;5081581;28;20906;-59
2023/07/16 11:49:57;;;;;;;3.00;2.70;;;28.40;88.60;;;;;;5080890;28;20513;-60
2023/07/16 11:52:26;;;;;;;3.70;2.63;;;29.00;99.90;;;;;;5081898;28;20442;-60
2023/07/16 11:54:59;;;;;;;3.90;2.23;;;28.80;85.30;;;;;;5083047;28;20537;-59
2023/07/16 11:57:26;;;;;;;2.80;2.07;;;29.10;80.40;;;;;;5082067;28;20423;-59
2023/07/16 11:59:55;;;;;;;4.57;2.40;;;;;;;;;;5081946;28;20470;-58
2023/07/16 12:02:22;;;;;;;3.53;1.77;;;29.30;74.20;;;;;;5081301;28;20502;-61
2023/07/16 12:04:49;;;;;;;2.07;1.87;;;;;;;;;;5081280;28;20505;-60
2023/07/16 12:07:16;;;;;;;3.27;2.20;;;29.80;69.10;;;;;;5081357;28;20498;-57
2023/07/16 12:09:43;;;;;;;4.07;3.00;;;29.80;66.90;;;;;;5080990;28;20529;-59
2023/07/16 12:12:14;;;;;;;3.13;2.40;;;29.90;61.10;;;;;;5081187;28;20470;-60
2023/07/16 12:14:41;;;;;;;4.50;2.57;;;;;;;;;;5086014;28;20462;-60
2023/07/16 12:17:08;;;;;;;2.67;2.17;;;30.10;58.90;;;;;;5081674;28;20506;-61
2023/07/16 12:19:35;;;;;;;4.40;2.30;;;;;;;;;;5081305;28;20445;-59
2023/07/16 12:22:05;;;;;;;4.20;2.60;;;29.90;58.50;;;;;;5080940;28;20437;-60
2023/07/16 12:24:31;;;;;;;4.00;2.60;;;29.90;59.00;;;;;;5087714;28;20454;-60
2023/07/16 12:26:58;;;;;;;4.80;3.37;;;;;;;;;;5080822;28;20510;-60
2023/07/16 12:29:27;;;;;;;5.10;2.70;;;29.80;57.50;;;;;;5080447;28;20541;-60
2023/07/16 12:31:54;;;;;;;4.10;3.07;;;29.70;59.20;;;;;;5080843;28;20489;-61
2023/07/16 12:34:21;;;;;;;6.57;2.30;;;;;;;;;;5081345;28;20537;-61
2023/07/16 12:36:48;;;;;;;2.50;2.30;;;29.70;60.40;;;;;;5080857;28;20535;-61
2023/07/16 12:39:15;;;;;;;3.23;2.37;;;29.80;60.70;;;;;;5080754;28;20434;-57
2023/07/16 12:41:43;;;;;;;3.90;1.93;;;29.70;61.60;;;;;;5081050;28;20494;-60
2023/07/16 12:44:10;;;;;;;3.97;2.20;;;29.70;60.70;;;;;;5081453;28;20434;-59
2023/07/16 12:46:38;;;;;;;3.03;2.23;;;29.70;60.10;;;;;;5080404;28;20504;-59
2023/07/16 12:49:05;;;;;;;2.97;1.87;;;29.60;59.90;;;;;;5080928;28;20553;-60
2023/07/16 12:51:32;;;;;;;3.23;1.80;;;29.30;59.60;;;;;;5081032;28;20974;-61
2023/07/16 12:54:00;;;;;;;4.70;2.83;;;29.40;79.40;;;;;;5081693;28;20450;-60
2023/07/16 12:56:27;;;;;;;2.67;2.20;;;29.60;87.00;;;;;;5081033;28;20478;-61
2023/07/16 12:58:54;;;;;;;2.83;2.43;;;29.70;59.80;;;;;;5082390;28;20518;-60
2023/07/16 13:01:21;;;;;;;4.00;2.10;;;29.90;57.80;;;;;;5081410;28;20552;-60
2023/07/16 13:03:49;;;;;;;4.67;2.30;;;29.90;57.50;;;;;;5081577;28;20472;-60
2023/07/16 13:06:16;;;;;;;3.17;2.30;;;29.90;59.40;;;;;;5081166;28;20511;-60
2023/07/16 13:08:43;;;;;;;2.90;1.97;;;29.90;57.50;;;;;;5081480;28;20498;-61
2023/07/16 13:11:10;;;;;;;3.90;1.97;;;29.90;86.80;;;;;;5080809;28;20941;-61
2023/07/16 13:13:38;;;;;;;3.00;2.30;;;29.80;58.60;;;;;;5081159;28;20482;-61
2023/07/16 13:16:05;;;;;;;2.87;1.87;;;29.70;57.70;;;;;;5080815;28;20456;-61
2023/07/16 13:18:32;;;;;;;3.00;2.60;;;29.70;58.60;;;;;;5081710;28;20488;-61
2023/07/16 13:21:00;;;;;;;4.40;1.93;;;29.80;59.00;;;;;;5082045;28;20446;-59
2023/07/16 13:23:27;;;;;;;2.60;2.33;;;30.00;58.50;;;;;;5081844;28;20477;-60